Flugplatz Offenburg (EDTO)

Hier findest Du alle Informationen zum Flugplatz Offenburg (EDTO).

Informationen für Piloten zum Flugplatz Offenburg

Hier findest Du alle relevanten Informationen, die Du als Pilot benötigst, um Offenburg anzufliegen.

Flugplatz: Offenburg ICAO-Code: EDTO
Frequenz Turm: 119,750 Mhz GAFOR Gebiet: 61
Frequenz Ground: 119,750 Mhz Mogas: nein
Platzrunde: NO 1200 ft Landegebühr: -
Platzhöhe: - Sunrise: 03:24 Uhr UTC
Pisten: 02/20 - 910 m x 20 m, ASPH Sunset: 19:33 Uhr UTC

Flugwetter am Flugplatz Offenburg

Die METAR Information stammen aus EDTL (11.46 km entfernt).

METAR Code:
2019/05/24 19:50
EDTL 241950Z 00000KT CAVOK 18/11 Q1014

Temperatur: 16,9 °C Niederschlag: - Wind: 1,9 kt
Temperatur (min.): 13,3 °C Luftdruck: 1016 hPa Windrichtung: 320 °
Temperatur (max.): 21,0 °C Luftfeuchtigkeit: 72 % Bewölkung: 7/8

Flugschulen am Flugplatz Offenburg

Am Flugplatz Offenburg gibt es 2 Flugschulen.

Benachbarte Flugplätze und Flugschulen

Es gibt 8 weitere Flugplätze in einem Umkreis von 50 km um den Flugplatz Offenburg.

Jetzt anmelden

Passwort vergessen

Umfrage Archiv

Welche Art von Theorieunterricht würde Dir am ehesten zusagen?

Frontalunterricht
64.4 %
Selbststudium
35.6 %
Stimmen: 376 | Diskussion
Anzeige: Roland Aircraft
Statistik Alle Mitglieder

Aktuell sind 57 Besucher online, davon 1 Mitglied und 56 Gäste.


Mitglieder online:
cbk 

Anzeige: VFR Sprechfunk Simulator


Anzeige: Pocket FMS